sensor_id;sensor_type;location;lat;lon;timestamp;P1;durP1;ratioP1;P2;durP2;ratioP2
64816;SDS011;53289;45.602;11.904;2023-03-01T00:01:12;17.77;;;8.13;;
64816;SDS011;53289;45.602;11.904;2023-03-01T00:03:41;18.35;;;8.88;;
64816;SDS011;53289;45.602;11.904;2023-03-01T00:06:08;18.38;;;8.75;;
64816;SDS011;53289;45.602;11.904;2023-03-01T00:08:34;18.67;;;8.68;;
64816;SDS011;53289;45.602;11.904;2023-03-01T00:13:45;17.95;;;8.98;;
64816;SDS011;53289;45.602;11.904;2023-03-01T00:16:13;19.85;;;9.35;;
64816;SDS011;53289;45.602;11.904;2023-03-01T00:18:42;18.00;;;8.93;;
64816;SDS011;53289;45.602;11.904;2023-03-01T00:21:08;19.25;;;8.70;;
64816;SDS011;53289;45.602;11.904;2023-03-01T00:23:34;18.77;;;8.65;;
64816;SDS011;53289;45.602;11.904;2023-03-01T00:26:01;23.20;;;9.48;;
64816;SDS011;53289;45.602;11.904;2023-03-01T00:28:27;17.92;;;8.63;;
64816;SDS011;53289;45.602;11.904;2023-03-01T00:30:53;17.15;;;8.20;;
64816;SDS011;53289;45.602;11.904;2023-03-01T00:33:19;18.23;;;8.50;;
64816;SDS011;53289;45.602;11.904;2023-03-01T00:35:45;17.08;;;8.10;;
64816;SDS011;53289;45.602;11.904;2023-03-01T00:38:11;20.80;;;8.63;;
64816;SDS011;53289;45.602;11.904;2023-03-01T00:40:37;19.80;;;9.07;;
64816;SDS011;53289;45.602;11.904;2023-03-01T00:43:03;16.70;;;7.85;;
64816;SDS011;53289;45.602;11.904;2023-03-01T00:45:29;15.90;;;7.75;;
64816;SDS011;53289;45.602;11.904;2023-03-01T00:47:56;19.00;;;9.48;;
64816;SDS011;53289;45.602;11.904;2023-03-01T00:50:23;16.67;;;8.48;;
64816;SDS011;53289;45.602;11.904;2023-03-01T00:52:52;17.05;;;8.43;;
64816;SDS011;53289;45.602;11.904;2023-03-01T00:55:19;16.02;;;7.80;;
64816;SDS011;53289;45.602;11.904;2023-03-01T00:57:45;16.63;;;8.45;;
64816;SDS011;53289;45.602;11.904;2023-03-01T01:00:11;18.83;;;7.90;;
64816;SDS011;53289;45.602;11.904;2023-03-01T01:02:37;18.45;;;7.97;;
64816;SDS011;53289;45.602;11.904;2023-03-01T01:05:03;16.90;;;7.75;;
64816;SDS011;53289;45.602;11.904;2023-03-01T01:07:30;18.25;;;7.93;;
64816;SDS011;53289;45.602;11.904;2023-03-01T01:09:56;15.23;;;7.15;;
64816;SDS011;53289;45.602;11.904;2023-03-01T01:12:22;16.17;;;8.57;;
64816;SDS011;53289;45.602;11.904;2023-03-01T01:14:47;16.02;;;7.22;;
64816;SDS011;53289;45.602;11.904;2023-03-01T01:17:13;16.38;;;8.15;;
64816;SDS011;53289;45.602;11.904;2023-03-01T01:19:39;15.95;;;7.63;;
64816;SDS011;53289;45.602;11.904;2023-03-01T01:22:05;15.07;;;8.15;;
64816;SDS011;53289;45.602;11.904;2023-03-01T01:24:31;17.25;;;7.70;;
64816;SDS011;53289;45.602;11.904;2023-03-01T01:26:57;16.65;;;7.97;;
64816;SDS011;53289;45.602;11.904;2023-03-01T01:29:23;17.02;;;8.10;;
64816;SDS011;53289;45.602;11.904;2023-03-01T01:34:20;19.73;;;8.82;;
64816;SDS011;53289;45.602;11.904;2023-03-01T01:36:50;17.02;;;7.88;;
64816;SDS011;53289;45.602;11.904;2023-03-01T01:39:20;20.67;;;7.90;;
64816;SDS011;53289;45.602;11.904;2023-03-01T01:41:46;18.27;;;8.15;;
64816;SDS011;53289;45.602;11.904;2023-03-01T01:47:12;16.85;;;8.15;;
64816;SDS011;53289;45.602;11.904;2023-03-01T01:49:45;18.88;;;8.18;;
64816;SDS011;53289;45.602;11.904;2023-03-01T01:52:34;18.35;;;8.85;;
64816;SDS011;53289;45.602;11.904;2023-03-01T01:57:34;15.15;;;7.80;;
64816;SDS011;53289;45.602;11.904;2023-03-01T02:00:08;23.52;;;10.35;;
64816;SDS011;53289;45.602;11.904;2023-03-01T02:02:37;18.88;;;9.10;;
64816;SDS011;53289;45.602;11.904;2023-03-01T02:05:11;18.13;;;9.60;;
64816;SDS011;53289;45.602;11.904;2023-03-01T02:07:45;18.90;;;9.52;;
64816;SDS011;53289;45.602;11.904;2023-03-01T02:10:12;21.10;;;10.43;;
64816;SDS011;53289;45.602;11.904;2023-03-01T02:12:38;19.60;;;9.65;;
64816;SDS011;53289;45.602;11.904;2023-03-01T02:15:05;21.63;;;9.50;;
64816;SDS011;53289;45.602;11.904;2023-03-01T02:17:31;22.50;;;9.65;;
64816;SDS011;53289;45.602;11.904;2023-03-01T02:20:02;19.15;;;9.10;;
64816;SDS011;53289;45.602;11.904;2023-03-01T02:27:54;20.83;;;9.48;;
64816;SDS011;53289;45.602;11.904;2023-03-01T02:30:36;19.38;;;9.45;;
64816;SDS011;53289;45.602;11.904;2023-03-01T02:33:02;20.25;;;9.73;;
64816;SDS011;53289;45.602;11.904;2023-03-01T02:35:33;22.75;;;9.35;;
64816;SDS011;53289;45.602;11.904;2023-03-01T02:38:02;19.07;;;9.10;;
64816;SDS011;53289;45.602;11.904;2023-03-01T02:40:31;20.27;;;9.55;;
64816;SDS011;53289;45.602;11.904;2023-03-01T02:43:00;20.13;;;8.85;;
64816;SDS011;53289;45.602;11.904;2023-03-01T02:45:27;18.15;;;9.15;;
64816;SDS011;53289;45.602;11.904;2023-03-01T02:47:54;17.50;;;8.93;;
64816;SDS011;53289;45.602;11.904;2023-03-01T02:53:02;16.55;;;7.93;;
64816;SDS011;53289;45.602;11.904;2023-03-01T02:55:34;16.67;;;8.38;;
64816;SDS011;53289;45.602;11.904;2023-03-01T02:58:00;15.88;;;7.93;;
64816;SDS011;53289;45.602;11.904;2023-03-01T03:00:38;17.63;;;9.00;;
64816;SDS011;53289;45.602;11.904;2023-03-01T03:03:12;19.08;;;8.55;;
64816;SDS011;53289;45.602;11.904;2023-03-01T03:05:39;17.90;;;8.20;;
64816;SDS011;53289;45.602;11.904;2023-03-01T03:08:05;16.85;;;8.45;;
64816;SDS011;53289;45.602;11.904;2023-03-01T03:10:34;16.70;;;8.43;;
64816;SDS011;53289;45.602;11.904;2023-03-01T03:13:09;16.42;;;8.45;;
64816;SDS011;53289;45.602;11.904;2023-03-01T03:15:36;18.23;;;8.90;;
64816;SDS011;53289;45.602;11.904;2023-03-01T03:18:05;14.50;;;7.85;;
64816;SDS011;53289;45.602;11.904;2023-03-01T03:20:33;17.15;;;8.25;;
64816;SDS011;53289;45.602;11.904;2023-03-01T03:22:59;16.42;;;8.57;;
64816;SDS011;53289;45.602;11.904;2023-03-01T03:25:26;17.95;;;8.15;;
64816;SDS011;53289;45.602;11.904;2023-03-01T03:27:53;16.05;;;8.10;;
64816;SDS011;53289;45.602;11.904;2023-03-01T03:30:22;20.00;;;8.80;;
64816;SDS011;53289;45.602;11.904;2023-03-01T03:32:50;18.40;;;8.60;;
64816;SDS011;53289;45.602;11.904;2023-03-01T03:35:19;15.30;;;8.23;;
64816;SDS011;53289;45.602;11.904;2023-03-01T03:37:57;14.93;;;7.45;;
64816;SDS011;53289;45.602;11.904;2023-03-01T03:40:29;15.32;;;7.47;;
64816;SDS011;53289;45.602;11.904;2023-03-01T03:42:55;17.48;;;8.32;;
64816;SDS011;53289;45.602;11.904;2023-03-01T03:45:21;13.40;;;6.90;;
64816;SDS011;53289;45.602;11.904;2023-03-01T03:47:47;14.52;;;6.50;;
64816;SDS011;53289;45.602;11.904;2023-03-01T03:50:14;15.20;;;8.15;;
64816;SDS011;53289;45.602;11.904;2023-03-01T03:52:41;16.73;;;7.43;;
64816;SDS011;53289;45.602;11.904;2023-03-01T03:55:08;15.15;;;7.10;;
64816;SDS011;53289;45.602;11.904;2023-03-01T03:57:36;15.27;;;8.25;;
64816;SDS011;53289;45.602;11.904;2023-03-01T04:00:03;19.05;;;7.80;;
64816;SDS011;53289;45.602;11.904;2023-03-01T04:02:30;13.85;;;6.28;;
64816;SDS011;53289;45.602;11.904;2023-03-01T04:04:56;14.98;;;6.93;;
64816;SDS011;53289;45.602;11.904;2023-03-01T04:07:22;14.98;;;7.03;;
64816;SDS011;53289;45.602;11.904;2023-03-01T04:09:48;15.57;;;7.40;;
64816;SDS011;53289;45.602;11.904;2023-03-01T04:12:14;16.70;;;7.63;;
64816;SDS011;53289;45.602;11.904;2023-03-01T04:14:45;14.13;;;7.20;;
64816;SDS011;53289;45.602;11.904;2023-03-01T04:17:11;15.10;;;7.68;;
64816;SDS011;53289;45.602;11.904;2023-03-01T04:19:37;14.65;;;7.78;;
64816;SDS011;53289;45.602;11.904;2023-03-01T04:22:03;13.32;;;7.32;;
64816;SDS011;53289;45.602;11.904;2023-03-01T04:24:35;12.73;;;6.63;;
64816;SDS011;53289;45.602;11.904;2023-03-01T04:27:01;15.73;;;7.47;;
64816;SDS011;53289;45.602;11.904;2023-03-01T04:29:27;14.18;;;6.90;;
64816;SDS011;53289;45.602;11.904;2023-03-01T04:31:53;16.20;;;8.07;;
64816;SDS011;53289;45.602;11.904;2023-03-01T04:34:19;15.25;;;7.50;;
64816;SDS011;53289;45.602;11.904;2023-03-01T04:36:45;15.43;;;7.40;;
64816;SDS011;53289;45.602;11.904;2023-03-01T04:39:11;13.95;;;7.10;;
64816;SDS011;53289;45.602;11.904;2023-03-01T04:41:39;16.15;;;6.95;;
64816;SDS011;53289;45.602;11.904;2023-03-01T04:44:06;15.15;;;7.28;;
64816;SDS011;53289;45.602;11.904;2023-03-01T04:46:34;15.40;;;7.32;;
64816;SDS011;53289;45.602;11.904;2023-03-01T04:49:00;17.05;;;7.40;;
64816;SDS011;53289;45.602;11.904;2023-03-01T04:51:26;15.60;;;7.45;;
64816;SDS011;53289;45.602;11.904;2023-03-01T04:53:52;15.68;;;7.85;;
64816;SDS011;53289;45.602;11.904;2023-03-01T04:56:18;14.65;;;7.18;;
64816;SDS011;53289;45.602;11.904;2023-03-01T04:58:44;13.90;;;6.80;;
64816;SDS011;53289;45.602;11.904;2023-03-01T05:01:12;15.73;;;7.28;;
64816;SDS011;53289;45.602;11.904;2023-03-01T05:03:52;13.30;;;6.55;;
64816;SDS011;53289;45.602;11.904;2023-03-01T05:06:18;14.75;;;6.60;;
64816;SDS011;53289;45.602;11.904;2023-03-01T05:08:45;12.70;;;6.18;;
64816;SDS011;53289;45.602;11.904;2023-03-01T05:11:11;11.82;;;6.38;;
64816;SDS011;53289;45.602;11.904;2023-03-01T05:13:37;13.23;;;5.72;;
64816;SDS011;53289;45.602;11.904;2023-03-01T05:16:04;13.30;;;6.65;;
64816;SDS011;53289;45.602;11.904;2023-03-01T05:18:32;12.57;;;5.95;;
64816;SDS011;53289;45.602;11.904;2023-03-01T05:21:08;13.10;;;5.78;;
64816;SDS011;53289;45.602;11.904;2023-03-01T05:23:41;12.30;;;5.63;;
64816;SDS011;53289;45.602;11.904;2023-03-01T05:26:07;11.13;;;5.70;;
64816;SDS011;53289;45.602;11.904;2023-03-01T05:28:33;16.20;;;6.55;;
64816;SDS011;53289;45.602;11.904;2023-03-01T05:30:59;10.73;;;5.35;;
64816;SDS011;53289;45.602;11.904;2023-03-01T05:33:25;12.45;;;5.57;;
64816;SDS011;53289;45.602;11.904;2023-03-01T05:35:52;13.18;;;6.35;;
64816;SDS011;53289;45.602;11.904;2023-03-01T05:38:18;11.85;;;5.90;;
64816;SDS011;53289;45.602;11.904;2023-03-01T05:40:46;11.63;;;5.30;;
64816;SDS011;53289;45.602;11.904;2023-03-01T05:43:14;11.75;;;5.45;;
64816;SDS011;53289;45.602;11.904;2023-03-01T05:45:41;15.02;;;5.93;;
64816;SDS011;53289;45.602;11.904;2023-03-01T05:48:08;12.30;;;5.97;;
64816;SDS011;53289;45.602;11.904;2023-03-01T05:50:36;10.57;;;5.50;;
64816;SDS011;53289;45.602;11.904;2023-03-01T05:53:05;12.00;;;5.13;;
64816;SDS011;53289;45.602;11.904;2023-03-01T05:55:35;10.77;;;4.90;;
64816;SDS011;53289;45.602;11.904;2023-03-01T05:58:02;12.38;;;5.93;;
64816;SDS011;53289;45.602;11.904;2023-03-01T06:00:32;15.13;;;5.63;;
64816;SDS011;53289;45.602;11.904;2023-03-01T06:02:59;13.07;;;6.70;;
64816;SDS011;53289;45.602;11.904;2023-03-01T06:05:25;12.07;;;6.03;;
64816;SDS011;53289;45.602;11.904;2023-03-01T06:07:52;11.30;;;5.68;;
64816;SDS011;53289;45.602;11.904;2023-03-01T06:10:19;11.15;;;5.22;;
64816;SDS011;53289;45.602;11.904;2023-03-01T06:12:46;9.82;;;4.85;;
64816;SDS011;53289;45.602;11.904;2023-03-01T06:15:12;10.48;;;4.95;;
64816;SDS011;53289;45.602;11.904;2023-03-01T06:17:40;12.00;;;5.10;;
64816;SDS011;53289;45.602;11.904;2023-03-01T06:20:12;10.15;;;4.95;;
64816;SDS011;53289;45.602;11.904;2023-03-01T06:22:43;10.57;;;5.63;;
64816;SDS011;53289;45.602;11.904;2023-03-01T06:25:09;12.02;;;6.00;;
64816;SDS011;53289;45.602;11.904;2023-03-01T06:27:37;13.07;;;6.25;;
64816;SDS011;53289;45.602;11.904;2023-03-01T06:30:04;13.88;;;6.68;;
64816;SDS011;53289;45.602;11.904;2023-03-01T06:32:32;13.80;;;6.53;;
64816;SDS011;53289;45.602;11.904;2023-03-01T06:34:57;13.95;;;6.97;;
64816;SDS011;53289;45.602;11.904;2023-03-01T06:37:24;13.25;;;6.50;;
64816;SDS011;53289;45.602;11.904;2023-03-01T06:39:50;14.23;;;7.13;;
64816;SDS011;53289;45.602;11.904;2023-03-01T06:42:16;15.88;;;8.13;;
64816;SDS011;53289;45.602;11.904;2023-03-01T06:44:43;12.88;;;7.35;;
64816;SDS011;53289;45.602;11.904;2023-03-01T06:47:09;13.50;;;7.18;;
64816;SDS011;53289;45.602;11.904;2023-03-01T06:49:35;13.18;;;6.75;;
64816;SDS011;53289;45.602;11.904;2023-03-01T06:52:01;11.93;;;6.85;;
64816;SDS011;53289;45.602;11.904;2023-03-01T06:54:28;13.63;;;6.65;;
64816;SDS011;53289;45.602;11.904;2023-03-01T06:56:54;12.45;;;6.90;;
64816;SDS011;53289;45.602;11.904;2023-03-01T06:59:19;14.30;;;7.18;;
64816;SDS011;53289;45.602;11.904;2023-03-01T07:01:46;16.02;;;8.10;;
64816;SDS011;53289;45.602;11.904;2023-03-01T07:04:12;12.50;;;6.97;;
64816;SDS011;53289;45.602;11.904;2023-03-01T07:06:38;14.15;;;6.85;;
64816;SDS011;53289;45.602;11.904;2023-03-01T07:09:05;12.27;;;7.47;;
64816;SDS011;53289;45.602;11.904;2023-03-01T07:11:31;16.55;;;8.10;;
64816;SDS011;53289;45.602;11.904;2023-03-01T07:13:57;16.30;;;7.97;;
64816;SDS011;53289;45.602;11.904;2023-03-01T07:16:25;13.25;;;7.55;;
64816;SDS011;53289;45.602;11.904;2023-03-01T07:18:51;14.57;;;7.65;;
64816;SDS011;53289;45.602;11.904;2023-03-01T07:21:17;13.25;;;6.20;;
64816;SDS011;53289;45.602;11.904;2023-03-01T07:23:43;12.50;;;6.53;;
64816;SDS011;53289;45.602;11.904;2023-03-01T07:26:08;14.55;;;6.20;;
64816;SDS011;53289;45.602;11.904;2023-03-01T07:28:34;12.15;;;5.50;;
64816;SDS011;53289;45.602;11.904;2023-03-01T07:31:03;14.63;;;7.65;;
64816;SDS011;53289;45.602;11.904;2023-03-01T07:33:30;14.55;;;7.57;;
64816;SDS011;53289;45.602;11.904;2023-03-01T07:35:57;17.05;;;7.65;;
64816;SDS011;53289;45.602;11.904;2023-03-01T07:38:24;14.20;;;8.00;;
64816;SDS011;53289;45.602;11.904;2023-03-01T07:40:51;15.15;;;8.50;;
64816;SDS011;53289;45.602;11.904;2023-03-01T07:43:17;16.77;;;7.97;;
64816;SDS011;53289;45.602;11.904;2023-03-01T07:45:43;16.92;;;8.23;;
64816;SDS011;53289;45.602;11.904;2023-03-01T07:48:09;15.65;;;8.73;;
64816;SDS011;53289;45.602;11.904;2023-03-01T07:50:34;14.88;;;8.05;;
64816;SDS011;53289;45.602;11.904;2023-03-01T07:53:01;16.67;;;7.43;;
64816;SDS011;53289;45.602;11.904;2023-03-01T07:55:27;17.45;;;7.72;;
64816;SDS011;53289;45.602;11.904;2023-03-01T07:57:53;14.68;;;7.75;;
64816;SDS011;53289;45.602;11.904;2023-03-01T08:00:19;14.15;;;7.47;;
64816;SDS011;53289;45.602;11.904;2023-03-01T08:02:45;16.27;;;7.50;;
64816;SDS011;53289;45.602;11.904;2023-03-01T08:05:11;14.90;;;7.53;;
64816;SDS011;53289;45.602;11.904;2023-03-01T08:07:36;15.73;;;7.47;;
64816;SDS011;53289;45.602;11.904;2023-03-01T08:10:03;13.55;;;7.78;;
64816;SDS011;53289;45.602;11.904;2023-03-01T08:12:29;14.65;;;7.57;;
64816;SDS011;53289;45.602;11.904;2023-03-01T08:14:54;13.25;;;6.72;;
64816;SDS011;53289;45.602;11.904;2023-03-01T08:17:21;13.25;;;6.95;;
64816;SDS011;53289;45.602;11.904;2023-03-01T08:19:47;11.55;;;6.18;;
64816;SDS011;53289;45.602;11.904;2023-03-01T08:22:13;19.00;;;7.22;;
64816;SDS011;53289;45.602;11.904;2023-03-01T08:24:39;12.25;;;6.28;;
64816;SDS011;53289;45.602;11.904;2023-03-01T08:27:04;11.77;;;5.85;;
64816;SDS011;53289;45.602;11.904;2023-03-01T08:29:31;10.07;;;5.80;;
64816;SDS011;53289;45.602;11.904;2023-03-01T08:31:57;10.93;;;5.57;;
64816;SDS011;53289;45.602;11.904;2023-03-01T08:34:23;9.48;;;4.95;;
64816;SDS011;53289;45.602;11.904;2023-03-01T08:39:17;11.52;;;5.35;;
64816;SDS011;53289;45.602;11.904;2023-03-01T08:41:44;10.30;;;5.32;;
64816;SDS011;53289;45.602;11.904;2023-03-01T08:44:10;9.60;;;4.80;;
64816;SDS011;53289;45.602;11.904;2023-03-01T08:46:38;9.90;;;4.82;;
64816;SDS011;53289;45.602;11.904;2023-03-01T08:49:06;9.60;;;5.28;;
64816;SDS011;53289;45.602;11.904;2023-03-01T08:51:41;10.20;;;5.30;;
64816;SDS011;53289;45.602;11.904;2023-03-01T08:54:12;12.57;;;5.07;;
64816;SDS011;53289;45.602;11.904;2023-03-01T08:56:41;11.63;;;4.72;;
64816;SDS011;53289;45.602;11.904;2023-03-01T08:59:07;11.75;;;5.28;;
64816;SDS011;53289;45.602;11.904;2023-03-01T09:01:34;10.38;;;4.95;;
64816;SDS011;53289;45.602;11.904;2023-03-01T09:04:00;9.40;;;5.35;;
64816;SDS011;53289;45.602;11.904;2023-03-01T09:06:25;11.65;;;5.30;;
64816;SDS011;53289;45.602;11.904;2023-03-01T09:08:51;9.32;;;5.30;;
64816;SDS011;53289;45.602;11.904;2023-03-01T09:11:20;12.73;;;5.63;;
64816;SDS011;53289;45.602;11.904;2023-03-01T09:13:47;11.57;;;5.75;;
64816;SDS011;53289;45.602;11.904;2023-03-01T09:16:14;11.07;;;5.82;;
64816;SDS011;53289;45.602;11.904;2023-03-01T09:18:43;12.10;;;5.20;;
64816;SDS011;53289;45.602;11.904;2023-03-01T09:21:11;10.70;;;5.70;;
64816;SDS011;53289;45.602;11.904;2023-03-01T09:23:42;8.65;;;5.03;;
64816;SDS011;53289;45.602;11.904;2023-03-01T09:26:11;15.65;;;5.38;;
64816;SDS011;53289;45.602;11.904;2023-03-01T09:28:40;11.88;;;5.60;;
64816;SDS011;53289;45.602;11.904;2023-03-01T09:31:12;10.75;;;5.22;;
64816;SDS011;53289;45.602;11.904;2023-03-01T09:33:39;8.48;;;4.60;;
64816;SDS011;53289;45.602;11.904;2023-03-01T09:36:07;9.35;;;5.25;;
64816;SDS011;53289;45.602;11.904;2023-03-01T09:38:47;9.98;;;5.18;;
64816;SDS011;53289;45.602;11.904;2023-03-01T09:43:44;9.85;;;5.20;;
64816;SDS011;53289;45.602;11.904;2023-03-01T09:46:20;10.40;;;4.80;;
64816;SDS011;53289;45.602;11.904;2023-03-01T09:48:52;9.30;;;4.85;;
64816;SDS011;53289;45.602;11.904;2023-03-01T09:51:24;11.98;;;4.90;;
64816;SDS011;53289;45.602;11.904;2023-03-01T09:53:56;8.70;;;4.68;;
64816;SDS011;53289;45.602;11.904;2023-03-01T10:06:51;9.18;;;4.80;;
64816;SDS011;53289;45.602;11.904;2023-03-01T10:09:28;10.95;;;4.63;;
64816;SDS011;53289;45.602;11.904;2023-03-01T10:11:59;11.73;;;5.25;;
64816;SDS011;53289;45.602;11.904;2023-03-01T10:17:06;11.50;;;4.55;;
64816;SDS011;53289;45.602;11.904;2023-03-01T10:19:59;9.55;;;4.20;;
64816;SDS011;53289;45.602;11.904;2023-03-01T10:22:45;6.95;;;4.07;;
64816;SDS011;53289;45.602;11.904;2023-03-01T10:25:17;14.35;;;4.40;;
64816;SDS011;53289;45.602;11.904;2023-03-01T10:27:54;9.95;;;4.63;;
64816;SDS011;53289;45.602;11.904;2023-03-01T10:32:53;10.02;;;4.40;;
64816;SDS011;53289;45.602;11.904;2023-03-01T10:37:56;8.93;;;4.30;;
64816;SDS011;53289;45.602;11.904;2023-03-01T10:40:28;9.30;;;4.20;;
64816;SDS011;53289;45.602;11.904;2023-03-01T10:42:54;8.32;;;4.30;;
64816;SDS011;53289;45.602;11.904;2023-03-01T10:50:45;12.73;;;4.45;;
64816;SDS011;53289;45.602;11.904;2023-03-01T10:55:47;12.68;;;5.18;;
64816;SDS011;53289;45.602;11.904;2023-03-01T10:58:21;13.30;;;5.13;;
64816;SDS011;53289;45.602;11.904;2023-03-01T11:00:52;10.13;;;4.18;;
64816;SDS011;53289;45.602;11.904;2023-03-01T11:03:29;13.07;;;4.90;;
64816;SDS011;53289;45.602;11.904;2023-03-01T11:06:01;10.68;;;4.40;;
64816;SDS011;53289;45.602;11.904;2023-03-01T11:08:47;14.20;;;4.30;;
64816;SDS011;53289;45.602;11.904;2023-03-01T11:11:22;12.57;;;4.43;;
64816;SDS011;53289;45.602;11.904;2023-03-01T11:14:21;14.48;;;4.40;;
64816;SDS011;53289;45.602;11.904;2023-03-01T11:16:57;11.18;;;4.25;;
64816;SDS011;53289;45.602;11.904;2023-03-01T11:19:31;11.65;;;4.43;;
64816;SDS011;53289;45.602;11.904;2023-03-01T11:22:07;9.02;;;4.03;;
64816;SDS011;53289;45.602;11.904;2023-03-01T11:29:55;12.45;;;3.83;;
64816;SDS011;53289;45.602;11.904;2023-03-01T11:32:34;12.60;;;4.53;;
64816;SDS011;53289;45.602;11.904;2023-03-01T11:37:46;11.27;;;4.03;;
64816;SDS011;53289;45.602;11.904;2023-03-01T12:17:20;13.70;;;4.53;;
64816;SDS011;53289;45.602;11.904;2023-03-01T12:25:25;8.25;;;4.50;;
64816;SDS011;53289;45.602;11.904;2023-03-01T12:33:35;13.15;;;4.45;;
64816;SDS011;53289;45.602;11.904;2023-03-01T12:39:19;10.27;;;4.43;;
64816;SDS011;53289;45.602;11.904;2023-03-01T12:47:21;12.68;;;5.32;;
64816;SDS011;53289;45.602;11.904;2023-03-01T12:49:56;11.15;;;5.05;;
64816;SDS011;53289;45.602;11.904;2023-03-01T12:52:40;9.35;;;4.70;;
64816;SDS011;53289;45.602;11.904;2023-03-01T12:55:37;10.25;;;4.30;;
64816;SDS011;53289;45.602;11.904;2023-03-01T12:58:13;14.77;;;5.97;;
64816;SDS011;53289;45.602;11.904;2023-03-01T13:17:53;9.45;;;5.20;;
64816;SDS011;53289;45.602;11.904;2023-03-01T13:23:03;9.55;;;4.80;;
64816;SDS011;53289;45.602;11.904;2023-03-01T13:25:32;10.77;;;4.82;;
64816;SDS011;53289;45.602;11.904;2023-03-01T13:31:01;10.40;;;4.90;;
64816;SDS011;53289;45.602;11.904;2023-03-01T13:35:55;10.75;;;4.60;;
64816;SDS011;53289;45.602;11.904;2023-03-01T13:41:12;9.05;;;4.30;;
64816;SDS011;53289;45.602;11.904;2023-03-01T13:43:40;8.45;;;3.70;;
64816;SDS011;53289;45.602;11.904;2023-03-01T13:46:15;9.63;;;4.88;;
64816;SDS011;53289;45.602;11.904;2023-03-01T13:48:47;10.70;;;4.45;;
64816;SDS011;53289;45.602;11.904;2023-03-01T13:51:23;9.73;;;4.90;;
64816;SDS011;53289;45.602;11.904;2023-03-01T13:53:52;9.20;;;4.50;;
64816;SDS011;53289;45.602;11.904;2023-03-01T13:56:33;7.72;;;4.07;;
64816;SDS011;53289;45.602;11.904;2023-03-01T13:59:03;9.90;;;4.22;;
64816;SDS011;53289;45.602;11.904;2023-03-01T14:01:37;10.10;;;4.43;;
64816;SDS011;53289;45.602;11.904;2023-03-01T14:04:14;10.68;;;4.18;;
64816;SDS011;53289;45.602;11.904;2023-03-01T14:06:45;8.98;;;4.30;;
64816;SDS011;53289;45.602;11.904;2023-03-01T14:09:22;8.63;;;4.53;;
64816;SDS011;53289;45.602;11.904;2023-03-01T14:19:58;10.57;;;5.05;;
64816;SDS011;53289;45.602;11.904;2023-03-01T14:27:34;11.07;;;5.55;;
64816;SDS011;53289;45.602;11.904;2023-03-01T14:30:11;11.35;;;5.82;;
64816;SDS011;53289;45.602;11.904;2023-03-01T14:32:42;9.65;;;4.70;;
64816;SDS011;53289;45.602;11.904;2023-03-01T14:35:24;11.80;;;5.90;;
64816;SDS011;53289;45.602;11.904;2023-03-01T14:37:54;10.02;;;5.10;;
64816;SDS011;53289;45.602;11.904;2023-03-01T14:40:22;10.35;;;5.38;;
64816;SDS011;53289;45.602;11.904;2023-03-01T14:42:56;12.85;;;5.32;;
64816;SDS011;53289;45.602;11.904;2023-03-01T14:45:26;12.10;;;5.22;;
64816;SDS011;53289;45.602;11.904;2023-03-01T14:47:54;12.35;;;5.45;;
64816;SDS011;53289;45.602;11.904;2023-03-01T14:50:27;11.95;;;5.30;;
64816;SDS011;53289;45.602;11.904;2023-03-01T14:52:59;10.80;;;5.25;;
64816;SDS011;53289;45.602;11.904;2023-03-01T14:58:12;12.65;;;5.70;;
64816;SDS011;53289;45.602;11.904;2023-03-01T15:00:39;12.85;;;5.40;;
64816;SDS011;53289;45.602;11.904;2023-03-01T15:03:21;11.55;;;5.15;;
64816;SDS011;53289;45.602;11.904;2023-03-01T15:06:02;11.15;;;5.07;;
64816;SDS011;53289;45.602;11.904;2023-03-01T15:08:30;10.38;;;5.55;;
64816;SDS011;53289;45.602;11.904;2023-03-01T15:11:02;10.35;;;4.50;;
64816;SDS011;53289;45.602;11.904;2023-03-01T15:13:32;10.10;;;4.53;;
64816;SDS011;53289;45.602;11.904;2023-03-01T15:16:12;12.57;;;4.95;;
64816;SDS011;53289;45.602;11.904;2023-03-01T15:18:45;10.43;;;5.07;;
64816;SDS011;53289;45.602;11.904;2023-03-01T15:23:49;8.93;;;4.40;;
64816;SDS011;53289;45.602;11.904;2023-03-01T15:26:24;10.70;;;4.50;;
64816;SDS011;53289;45.602;11.904;2023-03-01T15:28:54;7.95;;;4.70;;
64816;SDS011;53289;45.602;11.904;2023-03-01T15:31:27;9.23;;;4.57;;
64816;SDS011;53289;45.602;11.904;2023-03-01T15:34:10;11.52;;;4.85;;
64816;SDS011;53289;45.602;11.904;2023-03-01T15:36:57;8.63;;;4.32;;
64816;SDS011;53289;45.602;11.904;2023-03-01T15:39:27;8.27;;;4.30;;
64816;SDS011;53289;45.602;11.904;2023-03-01T15:42:07;8.52;;;4.03;;
64816;SDS011;53289;45.602;11.904;2023-03-01T15:44:34;10.13;;;4.68;;
64816;SDS011;53289;45.602;11.904;2023-03-01T15:47:02;8.55;;;4.38;;
64816;SDS011;53289;45.602;11.904;2023-03-01T15:49:46;8.07;;;4.75;;
64816;SDS011;53289;45.602;11.904;2023-03-01T15:52:13;8.55;;;3.67;;
64816;SDS011;53289;45.602;11.904;2023-03-01T15:54:46;5.13;;;3.40;;
64816;SDS011;53289;45.602;11.904;2023-03-01T15:57:12;5.15;;;3.00;;
64816;SDS011;53289;45.602;11.904;2023-03-01T15:59:40;6.35;;;3.53;;
64816;SDS011;53289;45.602;11.904;2023-03-01T16:02:10;7.38;;;3.50;;
64816;SDS011;53289;45.602;11.904;2023-03-01T16:04:38;6.82;;;3.80;;
64816;SDS011;53289;45.602;11.904;2023-03-01T16:07:04;7.88;;;3.72;;
64816;SDS011;53289;45.602;11.904;2023-03-01T16:09:30;6.38;;;3.63;;
64816;SDS011;53289;45.602;11.904;2023-03-01T16:11:57;6.50;;;3.58;;
64816;SDS011;53289;45.602;11.904;2023-03-01T16:14:23;5.40;;;3.20;;
64816;SDS011;53289;45.602;11.904;2023-03-01T16:16:49;6.03;;;3.22;;
64816;SDS011;53289;45.602;11.904;2023-03-01T16:19:15;5.38;;;3.30;;
64816;SDS011;53289;45.602;11.904;2023-03-01T16:21:41;7.75;;;4.00;;
64816;SDS011;53289;45.602;11.904;2023-03-01T16:24:08;5.88;;;3.53;;
64816;SDS011;53289;45.602;11.904;2023-03-01T16:26:35;9.63;;;6.05;;
64816;SDS011;53289;45.602;11.904;2023-03-01T16:29:02;6.80;;;4.00;;
64816;SDS011;53289;45.602;11.904;2023-03-01T16:31:28;9.27;;;4.22;;
64816;SDS011;53289;45.602;11.904;2023-03-01T16:33:56;7.18;;;4.53;;
64816;SDS011;53289;45.602;11.904;2023-03-01T16:36:24;8.20;;;4.40;;
64816;SDS011;53289;45.602;11.904;2023-03-01T16:38:53;11.88;;;4.88;;
64816;SDS011;53289;45.602;11.904;2023-03-01T16:41:21;9.75;;;4.93;;
64816;SDS011;53289;45.602;11.904;2023-03-01T16:43:48;9.02;;;4.53;;
64816;SDS011;53289;45.602;11.904;2023-03-01T16:46:19;8.88;;;4.35;;
64816;SDS011;53289;45.602;11.904;2023-03-01T16:48:47;7.85;;;4.18;;
64816;SDS011;53289;45.602;11.904;2023-03-01T16:51:15;8.32;;;4.75;;
64816;SDS011;53289;45.602;11.904;2023-03-01T16:53:41;10.32;;;4.45;;
64816;SDS011;53289;45.602;11.904;2023-03-01T16:56:08;10.52;;;5.65;;
64816;SDS011;53289;45.602;11.904;2023-03-01T16:58:35;11.98;;;4.13;;
64816;SDS011;53289;45.602;11.904;2023-03-01T17:01:03;9.70;;;4.88;;
64816;SDS011;53289;45.602;11.904;2023-03-01T17:03:33;7.15;;;4.22;;
64816;SDS011;53289;45.602;11.904;2023-03-01T17:06:03;9.52;;;4.78;;
64816;SDS011;53289;45.602;11.904;2023-03-01T17:08:31;9.55;;;4.50;;
64816;SDS011;53289;45.602;11.904;2023-03-01T17:11:06;9.32;;;4.55;;
64816;SDS011;53289;45.602;11.904;2023-03-01T17:13:35;7.65;;;4.47;;
64816;SDS011;53289;45.602;11.904;2023-03-01T17:16:03;8.18;;;4.43;;